createdAt,value
2022-11-22T00:01:20.777Z,8.70
2022-11-22T00:03:49.037Z,8.60
2022-11-22T00:06:17.424Z,8.70
2022-11-22T00:08:45.585Z,8.60
2022-11-22T00:11:14.129Z,8.70
2022-11-22T00:13:43.747Z,8.60
2022-11-22T00:16:12.004Z,8.60
2022-11-22T00:18:40.497Z,8.50
2022-11-22T00:21:09.586Z,8.50
2022-11-22T00:23:37.830Z,8.60
2022-11-22T00:26:07.194Z,8.50
2022-11-22T00:28:35.627Z,8.60
2022-11-22T00:31:05.218Z,8.60
2022-11-22T00:33:35.611Z,8.60
2022-11-22T00:36:04.240Z,8.60
2022-11-22T00:38:32.964Z,8.60
2022-11-22T00:41:01.147Z,8.70
2022-11-22T00:43:29.844Z,8.70
2022-11-22T00:45:58.369Z,8.70
2022-11-22T00:48:28.265Z,8.80
2022-11-22T00:50:57.344Z,8.80
2022-11-22T00:53:25.670Z,8.70
2022-11-22T00:55:53.935Z,8.70
2022-11-22T00:58:22.167Z,8.80
2022-11-22T01:00:56.243Z,8.80
2022-11-22T01:03:25.350Z,8.80
2022-11-22T01:05:55.063Z,8.80
2022-11-22T01:08:23.293Z,8.80
2022-11-22T01:10:57.225Z,8.80
2022-11-22T01:13:25.772Z,8.80
2022-11-22T01:15:53.911Z,8.80
2022-11-22T01:18:22.387Z,8.90
2022-11-22T01:20:50.635Z,8.90
2022-11-22T01:23:20.510Z,8.90
2022-11-22T01:25:48.704Z,8.80
2022-11-22T01:28:17.391Z,8.80
2022-11-22T01:30:45.775Z,8.80
2022-11-22T01:33:14.025Z,8.80
2022-11-22T01:35:42.363Z,8.80
2022-11-22T01:38:10.997Z,8.80
2022-11-22T01:40:40.734Z,8.80
2022-11-22T01:43:17.345Z,8.80
2022-11-22T01:45:48.371Z,8.80
2022-11-22T01:48:28.412Z,8.70
2022-11-22T01:51:00.830Z,8.70
2022-11-22T01:53:33.071Z,8.80
2022-11-22T01:56:05.059Z,8.80
2022-11-22T01:58:36.963Z,8.90
2022-11-22T02:01:05.821Z,8.90
2022-11-22T02:03:35.841Z,8.90
2022-11-22T02:06:04.805Z,8.90
2022-11-22T02:08:38.869Z,9.00
2022-11-22T02:11:10.642Z,9.00
2022-11-22T02:13:43.539Z,8.90
2022-11-22T02:16:12.812Z,8.90
2022-11-22T02:18:41.336Z,8.90
2022-11-22T02:21:10.331Z,8.90
2022-11-22T02:23:49.207Z,8.90
2022-11-22T02:26:19.145Z,9.00
2022-11-22T02:28:48.021Z,8.90
2022-11-22T02:31:34.789Z,9.00
2022-11-22T02:34:03.232Z,8.90
2022-11-22T02:36:34.798Z,8.90
2022-11-22T02:39:03.550Z,8.80
2022-11-22T02:41:34.103Z,8.80
2022-11-22T02:44:02.557Z,8.80
2022-11-22T02:46:31.984Z,8.70
2022-11-22T02:49:00.251Z,8.70
2022-11-22T02:51:29.016Z,8.70
2022-11-22T02:53:57.242Z,8.80
2022-11-22T02:56:25.414Z,8.80
2022-11-22T02:58:55.334Z,8.90
2022-11-22T03:01:23.757Z,8.90
2022-11-22T03:03:52.093Z,8.90
2022-11-22T03:06:20.311Z,8.90
2022-11-22T03:08:54.673Z,8.90
2022-11-22T03:11:24.624Z,8.90
2022-11-22T03:13:54.458Z,8.90
2022-11-22T03:16:22.800Z,8.90
2022-11-22T03:18:51.118Z,8.80
2022-11-22T03:21:19.571Z,8.90
2022-11-22T03:23:48.010Z,8.80
2022-11-22T03:26:16.180Z,8.80
2022-11-22T03:28:44.405Z,8.80
2022-11-22T03:31:14.151Z,8.80
2022-11-22T03:33:42.345Z,8.80
2022-11-22T03:36:10.660Z,8.80
2022-11-22T03:38:39.092Z,8.90
2022-11-22T03:41:07.320Z,8.80
2022-11-22T03:43:35.611Z,8.90
2022-11-22T03:46:03.875Z,8.80
2022-11-22T03:48:34.467Z,8.80
2022-11-22T03:51:06.577Z,8.70
2022-11-22T03:53:34.936Z,8.70
2022-11-22T03:56:03.402Z,8.60
2022-11-22T03:58:31.919Z,8.70
2022-11-22T04:01:00.606Z,8.80
2022-11-22T04:03:29.163Z,8.70
2022-11-22T04:05:59.137Z,8.80
2022-11-22T04:08:27.344Z,8.80
2022-11-22T04:10:55.828Z,8.80
2022-11-22T04:13:43.982Z,8.80
2022-11-22T04:16:11.127Z,8.90
2022-11-22T04:18:39.427Z,8.80
2022-11-22T04:21:26.644Z,8.60
2022-11-22T04:24:08.804Z,8.70
2022-11-22T04:26:37.184Z,8.80
2022-11-22T04:29:10.048Z,8.90
2022-11-22T04:31:56.422Z,8.90
2022-11-22T04:34:24.940Z,8.90
2022-11-22T04:36:54.621Z,9.00
2022-11-22T04:39:23.069Z,9.00
2022-11-22T04:42:13.859Z,9.00
2022-11-22T04:44:41.605Z,9.00
2022-11-22T04:47:10.048Z,9.00
2022-11-22T04:49:38.647Z,8.90
2022-11-22T04:52:27.681Z,8.80
2022-11-22T04:54:55.944Z,8.80
2022-11-22T04:57:24.114Z,8.70
2022-11-22T04:59:52.383Z,8.60
2022-11-22T05:02:20.942Z,8.60
2022-11-22T05:04:50.754Z,8.40
2022-11-22T05:07:20.890Z,8.50
2022-11-22T05:09:49.049Z,8.50
2022-11-22T05:12:17.200Z,8.40
2022-11-22T05:14:45.301Z,8.50
2022-11-22T05:17:13.870Z,8.50
2022-11-22T05:19:46.433Z,8.50
2022-11-22T05:22:17.825Z,8.50
2022-11-22T05:24:46.474Z,8.40
2022-11-22T05:27:14.622Z,8.40
2022-11-22T05:29:42.754Z,8.40
2022-11-22T05:32:10.917Z,8.40
2022-11-22T05:34:39.242Z,8.40
2022-11-22T05:37:07.586Z,8.40
2022-11-22T05:39:35.972Z,8.40
2022-11-22T05:42:06.017Z,8.40
2022-11-22T05:44:34.303Z,8.40
2022-11-22T05:47:02.670Z,8.40
2022-11-22T05:49:31.364Z,8.50
2022-11-22T05:52:00.092Z,8.50
2022-11-22T05:54:28.371Z,8.50
2022-11-22T05:56:57.691Z,8.60
2022-11-22T05:59:27.705Z,8.50
2022-11-22T06:01:56.206Z,8.50
2022-11-22T06:04:24.364Z,8.60
2022-11-22T06:06:52.595Z,8.50
2022-11-22T06:09:20.780Z,8.50
2022-11-22T06:11:48.881Z,8.40
2022-11-22T06:14:17.068Z,8.40
2022-11-22T06:16:46.738Z,8.40
2022-11-22T06:19:14.977Z,8.30
2022-11-22T06:21:43.110Z,8.30
2022-11-22T06:24:11.948Z,8.20
2022-11-22T06:26:40.125Z,8.20
2022-11-22T06:29:08.660Z,8.10
2022-11-22T06:31:37.107Z,8.10
2022-11-22T06:34:06.842Z,8.20
2022-11-22T06:36:36.359Z,8.20
2022-11-22T06:39:05.511Z,8.20
2022-11-22T06:41:36.203Z,8.20
2022-11-22T06:44:06.895Z,8.20
2022-11-22T06:46:35.708Z,8.00
2022-11-22T06:49:04.437Z,8.00
2022-11-22T06:51:35.327Z,8.10
2022-11-22T06:54:03.609Z,8.10
2022-11-22T06:56:36.798Z,8.00
2022-11-22T06:59:07.372Z,8.00
2022-11-22T07:01:38.681Z,8.10
2022-11-22T07:04:07.615Z,8.00
2022-11-22T07:06:39.140Z,8.00
2022-11-22T07:09:09.747Z,7.90
2022-11-22T07:11:38.691Z,8.00
2022-11-22T07:14:09.089Z,8.00
2022-11-22T07:16:39.239Z,8.00
2022-11-22T07:19:08.285Z,8.10
2022-11-22T07:21:38.337Z,8.00
2022-11-22T07:24:08.198Z,8.00
2022-11-22T07:26:37.046Z,8.00
2022-11-22T07:29:06.838Z,8.00
2022-11-22T07:31:35.396Z,8.10
2022-11-22T07:34:03.812Z,8.00
2022-11-22T07:36:32.331Z,8.00
2022-11-22T07:39:03.676Z,8.10
2022-11-22T07:41:32.019Z,8.00
2022-11-22T07:44:00.532Z,7.90
2022-11-22T07:46:31.792Z,7.70
2022-11-22T07:49:01.803Z,7.80
2022-11-22T07:51:30.728Z,7.80
2022-11-22T07:53:59.617Z,7.80
2022-11-22T07:56:29.422Z,7.90
2022-11-22T07:58:57.678Z,7.90
2022-11-22T08:01:28.823Z,7.90
2022-11-22T08:03:57.924Z,8.00
2022-11-22T08:06:26.457Z,8.00
2022-11-22T08:09:01.589Z,7.90
2022-11-22T08:11:31.753Z,8.00
2022-11-22T08:14:00.247Z,8.00
2022-11-22T08:16:28.426Z,8.10
2022-11-22T08:18:56.933Z,8.10
2022-11-22T08:21:25.167Z,8.10
2022-11-22T08:23:58.475Z,8.10
2022-11-22T08:26:27.273Z,8.10
2022-11-22T08:28:56.740Z,8.10
2022-11-22T08:31:26.044Z,8.10
2022-11-22T08:33:55.066Z,8.00
2022-11-22T08:36:23.670Z,8.10
2022-11-22T08:38:51.908Z,8.00
2022-11-22T08:41:20.207Z,8.10
2022-11-22T08:43:50.941Z,8.00
2022-11-22T08:46:21.278Z,8.00
2022-11-22T08:48:49.710Z,8.10
2022-11-22T08:51:18.066Z,8.10
2022-11-22T08:53:46.338Z,8.00
2022-11-22T08:56:16.086Z,8.00
2022-11-22T08:58:44.747Z,8.00
2022-11-22T09:01:15.588Z,8.10
2022-11-22T09:03:46.048Z,8.00
2022-11-22T09:11:53.018Z,8.20
2022-11-22T09:14:21.295Z,8.30
2022-11-22T09:16:49.557Z,8.20
2022-11-22T09:19:19.606Z,8.30
2022-11-22T09:21:47.954Z,8.30
2022-11-22T09:24:16.524Z,8.20
2022-11-22T09:26:45.311Z,8.30
2022-11-22T09:29:14.297Z,8.30
2022-11-22T09:31:42.536Z,8.30
2022-11-22T09:34:10.709Z,8.20
2022-11-22T09:36:40.299Z,8.30
2022-11-22T09:39:09.467Z,8.30
2022-11-22T09:42:27.069Z,8.20
2022-11-22T09:45:36.973Z,8.30
2022-11-22T09:48:23.244Z,8.30
2022-11-22T09:51:03.101Z,8.30
2022-11-22T09:53:39.517Z,8.40
2022-11-22T09:56:12.846Z,8.40
2022-11-22T09:58:47.762Z,8.40
2022-11-22T10:01:21.337Z,8.40
2022-11-22T10:03:55.553Z,8.40
2022-11-22T10:06:28.884Z,8.30
2022-11-22T10:09:08.546Z,8.30
2022-11-22T10:11:43.346Z,8.40
2022-11-22T10:14:23.707Z,8.50
2022-11-22T10:16:56.553Z,8.50
2022-11-22T10:19:31.259Z,8.50
2022-11-22T10:21:59.915Z,8.60
2022-11-22T10:24:30.859Z,8.60
2022-11-22T10:27:00.697Z,8.60
2022-11-22T10:29:37.545Z,8.70
2022-11-22T10:32:19.381Z,8.70
2022-11-22T10:35:12.314Z,8.80
2022-11-22T10:37:50.007Z,8.70
2022-11-22T10:40:24.331Z,8.60
2022-11-22T10:43:03.323Z,8.70
2022-11-22T10:45:35.776Z,8.60
2022-11-22T10:48:17.499Z,8.60
2022-11-22T10:50:56.476Z,8.70
2022-11-22T10:53:34.813Z,8.60
2022-11-22T10:56:14.501Z,8.70
2022-11-22T10:59:05.732Z,8.60
2022-11-22T11:01:43.155Z,8.60
2022-11-22T11:04:16.225Z,8.60
2022-11-22T11:07:11.016Z,8.50
2022-11-22T11:12:40.627Z,8.60
2022-11-22T11:15:21.192Z,8.50
2022-11-22T11:17:54.589Z,8.60
2022-11-22T11:20:26.588Z,8.60
2022-11-22T11:25:45.125Z,8.60
2022-11-22T11:28:21.395Z,8.70
2022-11-22T11:30:52.325Z,8.70
2022-11-22T11:33:27.738Z,8.70
2022-11-22T11:36:05.061Z,8.70
2022-11-22T11:38:37.537Z,8.80
2022-11-22T11:41:24.064Z,8.80
2022-11-22T11:43:54.844Z,8.80
2022-11-22T11:46:24.694Z,8.80
2022-11-22T11:48:54.626Z,8.90
2022-11-22T11:51:27.285Z,8.90
2022-11-22T11:53:59.701Z,8.90
2022-11-22T11:56:50.770Z,8.90
2022-11-22T11:59:22.141Z,8.90
2022-11-22T12:02:00.669Z,8.90
2022-11-22T12:04:33.345Z,8.90
2022-11-22T12:07:05.058Z,8.90
2022-11-22T12:09:36.530Z,8.90
2022-11-22T12:12:25.645Z,9.00
2022-11-22T12:15:11.218Z,9.00
2022-11-22T12:17:51.395Z,9.00
2022-11-22T12:20:24.480Z,9.00
2022-11-22T12:23:05.062Z,9.00
2022-11-22T12:25:38.150Z,9.00
2022-11-22T12:28:16.456Z,9.00
2022-11-22T12:30:50.511Z,9.00
2022-11-22T12:33:23.609Z,9.00
2022-11-22T12:35:54.824Z,9.00
2022-11-22T12:38:28.075Z,9.00
2022-11-22T12:41:00.267Z,9.00
2022-11-22T12:43:32.114Z,9.00
2022-11-22T12:46:06.387Z,9.00
2022-11-22T12:48:40.824Z,9.10
2022-11-22T12:51:18.480Z,9.10
2022-11-22T12:53:49.302Z,9.10
2022-11-22T12:56:29.777Z,9.10
2022-11-22T12:59:07.524Z,9.10
2022-11-22T13:01:45.431Z,9.10
2022-11-22T13:04:20.791Z,9.10
2022-11-22T13:06:58.838Z,9.10
2022-11-22T13:09:31.695Z,9.20
2022-11-22T13:12:04.114Z,9.10
2022-11-22T13:14:35.628Z,9.10
2022-11-22T13:17:09.185Z,9.10
2022-11-22T13:19:46.746Z,9.10
2022-11-22T13:22:26.144Z,9.10
2022-11-22T13:25:09.590Z,9.00
2022-11-22T13:27:41.790Z,9.10
2022-11-22T13:30:19.697Z,9.10
2022-11-22T13:32:52.956Z,9.10
2022-11-22T13:35:30.745Z,9.10
2022-11-22T13:38:02.596Z,9.20
2022-11-22T13:40:36.363Z,9.20
2022-11-22T13:43:33.549Z,9.10
2022-11-22T13:46:04.429Z,9.10
2022-11-22T13:49:16.151Z,9.20
2022-11-22T13:51:56.483Z,9.10
2022-11-22T13:55:00.563Z,9.10
2022-11-22T13:57:36.221Z,9.10
2022-11-22T14:00:57.296Z,9.10
2022-11-22T14:03:40.932Z,9.10
2022-11-22T14:06:32.454Z,9.10
2022-11-22T14:09:18.960Z,9.10
2022-11-22T14:11:59.262Z,9.10
2022-11-22T14:14:35.400Z,9.10
2022-11-22T14:17:13.513Z,9.00
2022-11-22T14:19:55.335Z,9.10
2022-11-22T14:22:34.846Z,9.00
2022-11-22T14:25:19.833Z,9.00
2022-11-22T14:27:54.788Z,9.00
2022-11-22T14:30:24.228Z,9.00
2022-11-22T14:33:03.981Z,9.00
2022-11-22T14:35:37.981Z,9.00
2022-11-22T14:38:40.867Z,8.90
2022-11-22T14:41:46.145Z,8.90
2022-11-22T14:44:22.482Z,8.90
2022-11-22T14:46:56.974Z,8.90
2022-11-22T14:49:38.429Z,9.00
2022-11-22T14:52:23.909Z,8.90
2022-11-22T14:54:58.017Z,9.00
2022-11-22T14:57:29.539Z,8.90
2022-11-22T15:00:09.295Z,8.80
2022-11-22T15:03:16.172Z,8.90
2022-11-22T15:09:13.833Z,8.90
2022-11-22T15:09:21.987Z,8.80
2022-11-22T15:12:15.650Z,8.80
2022-11-22T15:59:11.768Z,8.40
2022-11-22T16:01:43.922Z,8.40
2022-11-22T16:04:24.129Z,8.40
2022-11-22T16:06:53.791Z,8.40
2022-11-22T16:09:33.108Z,8.40
2022-11-22T16:12:03.372Z,8.50
2022-11-22T16:14:47.036Z,8.40
2022-11-22T16:17:37.436Z,8.40
2022-11-22T16:20:28.213Z,8.40
2022-11-22T16:23:27.879Z,8.40
2022-11-22T16:26:00.480Z,8.40
2022-11-22T16:28:35.925Z,8.40
2022-11-22T16:31:07.990Z,8.40
2022-11-22T16:33:38.010Z,8.40
2022-11-22T16:36:13.661Z,8.40
2022-11-22T16:38:42.652Z,8.40
2022-11-22T16:41:18.815Z,8.50
2022-11-22T16:43:49.344Z,8.40
2022-11-22T16:46:19.231Z,8.40
2022-11-22T16:48:49.792Z,8.30
2022-11-22T16:51:23.994Z,8.30
2022-11-22T16:53:54.436Z,8.30
2022-11-22T16:56:25.167Z,8.30
2022-11-22T16:58:55.735Z,8.30
2022-11-22T17:01:26.840Z,8.30
2022-11-22T17:03:58.124Z,8.30
2022-11-22T17:06:28.615Z,8.30
2022-11-22T17:08:58.962Z,8.30
2022-11-22T17:11:29.058Z,8.30
2022-11-22T17:13:57.905Z,8.30
2022-11-22T17:16:27.528Z,8.30
2022-11-22T17:18:58.600Z,8.40
2022-11-22T17:21:32.773Z,8.40
2022-11-22T17:24:07.084Z,8.40
2022-11-22T17:26:36.016Z,8.40
2022-11-22T17:29:04.251Z,8.40
2022-11-22T17:31:32.753Z,8.40
2022-11-22T17:34:03.524Z,8.40
2022-11-22T17:36:34.152Z,8.40
2022-11-22T17:39:04.414Z,8.40
2022-11-22T17:41:33.680Z,8.40
2022-11-22T17:44:02.103Z,8.40
2022-11-22T17:46:31.716Z,8.40
2022-11-22T17:49:02.629Z,8.40
2022-11-22T17:51:31.921Z,8.40
2022-11-22T17:54:00.747Z,8.40
2022-11-22T17:56:30.432Z,8.40
2022-11-22T17:58:58.551Z,8.40
2022-11-22T18:01:27.034Z,8.40
2022-11-22T18:03:55.108Z,8.40
2022-11-22T18:06:26.341Z,8.30
2022-11-22T18:08:54.744Z,8.30
2022-11-22T18:11:23.067Z,8.30
2022-11-22T18:13:51.272Z,8.30
2022-11-22T18:16:19.792Z,8.30
2022-11-22T18:18:56.635Z,8.30
2022-11-22T18:21:29.208Z,8.30
2022-11-22T18:23:58.291Z,8.30
2022-11-22T18:26:42.834Z,8.40
2022-11-22T18:32:01.312Z,8.30
2022-11-22T18:34:30.227Z,8.40
2022-11-22T18:37:03.426Z,8.30
2022-11-22T18:39:33.321Z,8.30
2022-11-22T18:42:02.326Z,8.40
2022-11-22T18:44:30.655Z,8.40
2022-11-22T18:46:59.574Z,8.40
2022-11-22T18:49:27.793Z,8.50
2022-11-22T18:51:56.740Z,8.50
2022-11-22T18:54:26.402Z,8.50
2022-11-22T18:56:54.803Z,8.50
2022-11-22T18:59:23.542Z,8.50
2022-11-22T19:01:51.733Z,8.50
2022-11-22T19:04:19.971Z,8.50
2022-11-22T19:06:48.130Z,8.50
2022-11-22T19:09:16.486Z,8.50
2022-11-22T19:11:46.005Z,8.50
2022-11-22T19:14:14.123Z,8.50
2022-11-22T19:16:42.313Z,8.40
2022-11-22T19:19:12.592Z,8.40
2022-11-22T19:21:41.256Z,8.40
2022-11-22T19:24:09.764Z,8.50
2022-11-22T19:26:38.365Z,8.40
2022-11-22T19:29:08.701Z,8.40
2022-11-22T19:31:36.924Z,8.40
2022-11-22T19:34:05.579Z,8.40
2022-11-22T19:36:36.223Z,8.40
2022-11-22T19:39:05.881Z,8.40
2022-11-22T19:41:35.040Z,8.40
2022-11-22T19:44:03.368Z,8.40
2022-11-22T19:46:32.878Z,8.40
2022-11-22T19:49:02.142Z,8.40
2022-11-22T19:51:32.107Z,8.40
2022-11-22T19:54:02.623Z,8.40
2022-11-22T19:56:32.951Z,8.40
2022-11-22T19:59:02.998Z,8.30
2022-11-22T20:01:34.605Z,8.30
2022-11-22T20:04:04.728Z,8.30
2022-11-22T20:06:34.095Z,8.30
2022-11-22T20:09:05.742Z,8.30
2022-11-22T20:11:34.002Z,8.30
2022-11-22T20:14:02.390Z,8.40
2022-11-22T20:16:32.851Z,8.30
2022-11-22T20:19:04.563Z,8.30
2022-11-22T20:21:34.505Z,8.30
2022-11-22T20:24:03.601Z,8.30
2022-11-22T20:26:33.954Z,8.40
2022-11-22T20:29:04.239Z,8.40
2022-11-22T20:31:35.506Z,8.40
2022-11-22T20:34:04.443Z,8.30
2022-11-22T20:36:34.470Z,8.40
2022-11-22T20:39:07.019Z,8.30
2022-11-22T20:41:39.101Z,8.40
2022-11-22T20:44:07.750Z,8.40
2022-11-22T20:46:38.909Z,8.40
2022-11-22T20:49:07.702Z,8.40
2022-11-22T20:51:39.849Z,8.40
2022-11-22T20:54:08.751Z,8.40
2022-11-22T20:56:37.439Z,8.30
2022-11-22T20:59:05.816Z,8.40
2022-11-22T21:01:34.306Z,8.30
2022-11-22T21:04:04.568Z,8.40
2022-11-22T21:06:35.167Z,8.30
2022-11-22T21:09:03.526Z,8.40
2022-11-22T21:11:32.132Z,8.40
2022-11-22T21:14:00.602Z,8.40
2022-11-22T21:16:30.726Z,8.40
2022-11-22T21:19:01.558Z,8.40
2022-11-22T21:21:32.219Z,8.50
2022-11-22T21:24:02.620Z,8.50
2022-11-22T21:26:31.383Z,8.50
2022-11-22T21:29:00.519Z,8.40
2022-11-22T21:31:29.289Z,8.40
2022-11-22T21:33:57.806Z,8.40
2022-11-22T21:36:26.394Z,8.40
2022-11-22T21:38:56.223Z,8.40
2022-11-22T21:41:39.340Z,8.40
2022-11-22T21:44:09.282Z,8.40
2022-11-22T21:46:37.677Z,8.30
2022-11-22T21:49:05.852Z,8.30
2022-11-22T21:51:34.050Z,8.30
2022-11-22T21:54:04.265Z,8.40
2022-11-22T21:56:32.676Z,8.30
2022-11-22T21:59:01.125Z,8.40
2022-11-22T22:01:29.903Z,8.40
2022-11-22T22:03:58.347Z,8.50
2022-11-22T22:06:26.675Z,8.40
2022-11-22T22:08:54.875Z,8.40
2022-11-22T22:11:24.795Z,8.40
2022-11-22T22:13:54.319Z,8.50
2022-11-22T22:16:26.088Z,8.50
2022-11-22T22:18:55.069Z,8.50
2022-11-22T22:21:23.476Z,8.40
2022-11-22T22:23:53.410Z,8.40
2022-11-22T22:26:21.693Z,8.40
2022-11-22T22:28:51.612Z,8.40
2022-11-22T22:31:23.152Z,8.40
2022-11-22T22:33:52.739Z,8.40
2022-11-22T22:36:21.188Z,8.30
2022-11-22T22:38:49.590Z,8.40
2022-11-22T22:41:18.835Z,8.30
2022-11-22T22:43:49.055Z,8.40
2022-11-22T22:46:20.719Z,8.40
2022-11-22T22:48:50.724Z,8.40
2022-11-22T22:51:21.016Z,8.50
2022-11-22T22:53:50.014Z,8.40
2022-11-22T22:56:19.873Z,8.30
2022-11-22T22:58:48.172Z,8.40
2022-11-22T23:01:19.537Z,8.30
2022-11-22T23:03:49.552Z,8.30
2022-11-22T23:06:19.497Z,8.40
2022-11-22T23:08:49.749Z,8.30
2022-11-22T23:11:19.933Z,8.30
2022-11-22T23:13:48.205Z,8.30
2022-11-22T23:16:17.950Z,8.30
2022-11-22T23:18:46.730Z,8.10
2022-11-22T23:21:16.262Z,8.00
2022-11-22T23:23:44.520Z,8.00
2022-11-22T23:26:13.981Z,8.00
2022-11-22T23:28:42.328Z,8.20
2022-11-22T23:31:12.182Z,8.30
2022-11-22T23:33:42.286Z,8.30
2022-11-22T23:36:13.388Z,8.30
2022-11-22T23:38:42.311Z,8.30
2022-11-22T23:41:11.901Z,8.30
2022-11-22T23:43:40.904Z,8.40
2022-11-22T23:46:16.208Z,8.40
2022-11-22T23:48:46.888Z,8.40
2022-11-22T23:51:16.119Z,8.40
2022-11-22T23:53:44.454Z,8.40
2022-11-22T23:56:15.940Z,8.40
2022-11-22T23:58:47.314Z,8.40
